createdAt,value
2023-09-06T00:02:16.766Z,1.40
2023-09-06T00:04:44.139Z,1.30
2023-09-06T00:07:11.822Z,1.30
2023-09-06T00:09:38.879Z,1.27
2023-09-06T00:12:06.875Z,1.27
2023-09-06T00:14:38.370Z,1.10
2023-09-06T00:17:06.222Z,1.35
2023-09-06T00:19:33.648Z,1.35
2023-09-06T00:22:02.831Z,1.38
2023-09-06T00:24:29.900Z,1.27
2023-09-06T00:26:59.678Z,1.20
2023-09-06T00:29:26.649Z,1.58
2023-09-06T00:31:53.683Z,1.40
2023-09-06T00:34:20.706Z,1.33
2023-09-06T00:36:48.182Z,1.38
2023-09-06T00:39:15.990Z,1.38
2023-09-06T00:41:43.013Z,1.20
2023-09-06T00:44:11.277Z,1.40
2023-09-06T00:46:39.705Z,1.70
2023-09-06T00:49:08.761Z,1.30
2023-09-06T00:51:36.019Z,1.20
2023-09-06T00:54:03.457Z,1.20
2023-09-06T00:56:31.440Z,1.42
2023-09-06T00:58:58.960Z,1.25
2023-09-06T01:01:26.182Z,1.45
2023-09-06T01:03:53.429Z,1.10
2023-09-06T01:06:33.283Z,1.45
2023-09-06T01:09:00.775Z,1.20
2023-09-06T01:11:29.043Z,1.30
2023-09-06T01:13:59.914Z,1.50
2023-09-06T01:16:50.223Z,1.60
2023-09-06T01:19:21.569Z,1.25
2023-09-06T01:22:07.853Z,1.38
2023-09-06T01:24:36.124Z,1.50
2023-09-06T01:27:06.037Z,1.48
2023-09-06T01:29:33.917Z,1.40
2023-09-06T01:32:00.966Z,1.50
2023-09-06T01:34:28.021Z,1.10
2023-09-06T01:36:55.192Z,1.23
2023-09-06T01:39:22.251Z,1.30
2023-09-06T01:41:49.417Z,1.35
2023-09-06T01:44:16.465Z,1.48
2023-09-06T01:46:43.607Z,1.15
2023-09-06T01:49:11.068Z,1.20
2023-09-06T01:51:38.299Z,1.40
2023-09-06T01:54:07.294Z,1.27
2023-09-06T01:56:35.261Z,1.35
2023-09-06T01:59:05.465Z,1.40
2023-09-06T02:01:32.616Z,1.73
2023-09-06T02:04:00.804Z,1.40
2023-09-06T02:06:28.008Z,1.50
2023-09-06T02:08:55.006Z,1.20
2023-09-06T02:11:22.220Z,1.30
2023-09-06T02:13:49.289Z,1.40
2023-09-06T02:16:19.445Z,1.25
2023-09-06T02:18:46.537Z,1.25
2023-09-06T02:21:13.602Z,1.30
2023-09-06T02:23:40.619Z,1.40
2023-09-06T02:26:07.659Z,1.40
2023-09-06T02:28:35.814Z,1.25
2023-09-06T02:31:03.233Z,1.35
2023-09-06T02:33:30.201Z,1.48
2023-09-06T02:35:57.294Z,1.33
2023-09-06T02:38:24.412Z,1.45
2023-09-06T02:40:53.404Z,1.48
2023-09-06T02:43:24.192Z,1.02
2023-09-06T02:45:54.947Z,1.42
2023-09-06T02:48:24.724Z,1.48
2023-09-06T02:50:53.079Z,1.27
2023-09-06T02:53:23.114Z,1.70
2023-09-06T02:55:54.313Z,1.50
2023-09-06T02:58:26.421Z,1.40
2023-09-06T03:00:59.044Z,1.40
2023-09-06T03:03:30.061Z,1.48
2023-09-06T03:05:59.385Z,1.23
2023-09-06T03:08:27.264Z,1.30
2023-09-06T03:10:54.645Z,1.20
2023-09-06T03:13:21.997Z,1.30
2023-09-06T03:15:52.899Z,1.27
2023-09-06T03:18:24.862Z,1.48
2023-09-06T03:20:56.878Z,1.27
2023-09-06T03:23:25.469Z,1.20
2023-09-06T03:25:59.485Z,1.60
2023-09-06T03:28:27.885Z,1.60
2023-09-06T03:31:00.082Z,1.50
2023-09-06T03:33:29.373Z,1.30
2023-09-06T03:35:59.326Z,1.20
2023-09-06T03:38:30.211Z,1.30
2023-09-06T03:41:03.663Z,1.30
2023-09-06T03:43:33.645Z,1.48
2023-09-06T03:46:08.794Z,1.50
2023-09-06T03:48:37.552Z,1.50
2023-09-06T03:51:14.401Z,1.17
2023-09-06T03:53:43.686Z,1.40
2023-09-06T03:56:11.864Z,1.50
2023-09-06T03:58:39.287Z,1.48
2023-09-06T04:01:06.404Z,1.50
2023-09-06T04:03:33.675Z,1.30
2023-09-06T04:06:04.510Z,1.60
2023-09-06T04:08:32.695Z,1.40
2023-09-06T04:11:00.270Z,1.20
2023-09-06T04:13:27.372Z,1.20
2023-09-06T04:15:54.801Z,1.58
2023-09-06T04:18:21.847Z,1.73
2023-09-06T04:20:50.407Z,1.45
2023-09-06T04:23:17.870Z,1.55
2023-09-06T04:25:48.195Z,1.40
2023-09-06T04:28:17.431Z,1.50
2023-09-06T04:30:49.275Z,1.48
2023-09-06T04:33:20.092Z,1.27
2023-09-06T04:35:49.545Z,1.60
2023-09-06T04:38:19.815Z,1.45
2023-09-06T04:40:48.755Z,1.35
2023-09-06T04:43:20.954Z,1.17
2023-09-06T04:45:49.904Z,1.27
2023-09-06T04:48:20.240Z,1.33
2023-09-06T04:50:48.219Z,1.30
2023-09-06T04:53:19.497Z,1.35
2023-09-06T04:55:50.918Z,1.35
2023-09-06T04:58:24.457Z,1.40
2023-09-06T05:00:51.945Z,1.40
2023-09-06T05:03:19.576Z,1.48
2023-09-06T05:05:48.625Z,1.25
2023-09-06T05:08:16.233Z,1.60
2023-09-06T05:10:43.288Z,1.80
2023-09-06T05:13:12.873Z,1.70
2023-09-06T05:15:40.628Z,1.40
2023-09-06T05:18:11.272Z,1.48
2023-09-06T05:20:41.280Z,1.63
2023-09-06T05:23:15.300Z,1.70
2023-09-06T05:25:43.818Z,1.38
2023-09-06T05:28:13.820Z,1.30
2023-09-06T05:30:44.994Z,3.70
2023-09-06T05:33:15.224Z,1.92
2023-09-06T05:35:43.236Z,1.88
2023-09-06T05:38:12.906Z,1.60
2023-09-06T05:40:43.159Z,1.73
2023-09-06T05:43:10.862Z,1.60
2023-09-06T05:45:38.015Z,1.50
2023-09-06T05:48:07.191Z,1.55
2023-09-06T05:50:35.574Z,4.28
2023-09-06T05:53:02.773Z,4.10
2023-09-06T05:55:29.838Z,2.28
2023-09-06T05:57:56.900Z,2.00
2023-09-06T06:00:25.812Z,2.10
2023-09-06T06:02:56.603Z,2.15
2023-09-06T06:05:25.258Z,2.15
2023-09-06T06:07:52.650Z,2.10
2023-09-06T06:10:19.686Z,2.20
2023-09-06T06:12:47.342Z,1.85
2023-09-06T06:15:15.190Z,2.28
2023-09-06T06:17:43.561Z,2.70
2023-09-06T06:20:12.700Z,2.17
2023-09-06T06:22:41.100Z,2.78
2023-09-06T06:25:11.624Z,4.30
2023-09-06T06:27:40.368Z,3.83
2023-09-06T06:30:09.130Z,3.00
2023-09-06T06:32:36.591Z,3.15
2023-09-06T06:35:07.360Z,3.40
2023-09-06T06:37:35.622Z,3.03
2023-09-06T06:40:03.899Z,2.97
2023-09-06T06:42:39.954Z,2.83
2023-09-06T06:45:07.757Z,3.10
2023-09-06T06:47:34.803Z,2.70
2023-09-06T06:50:07.018Z,2.55
2023-09-06T06:52:39.977Z,2.53
2023-09-06T06:55:07.491Z,2.38
2023-09-06T06:57:34.763Z,2.50
2023-09-06T07:00:07.340Z,2.72
2023-09-06T07:02:36.018Z,2.47
2023-09-06T07:05:03.844Z,2.47
2023-09-06T07:07:31.317Z,2.60
2023-09-06T07:09:58.434Z,2.33
2023-09-06T07:12:25.519Z,2.50
2023-09-06T07:14:53.220Z,2.40
2023-09-06T07:17:20.420Z,2.22
2023-09-06T07:19:47.622Z,2.42
2023-09-06T07:22:14.601Z,2.63
2023-09-06T07:24:41.649Z,2.53
2023-09-06T07:27:08.758Z,2.30
2023-09-06T07:29:35.996Z,2.08
2023-09-06T07:32:04.608Z,2.30
2023-09-06T07:34:32.006Z,2.30
2023-09-06T07:36:59.215Z,2.42
2023-09-06T07:39:27.447Z,2.20
2023-09-06T07:41:55.397Z,2.33
2023-09-06T07:44:22.406Z,2.08
2023-09-06T07:46:50.290Z,2.05
2023-09-06T07:49:17.729Z,2.22
2023-09-06T07:51:45.172Z,2.00
2023-09-06T07:54:12.769Z,2.60
2023-09-06T07:56:40.678Z,2.70
2023-09-06T07:59:14.566Z,2.33
2023-09-06T08:01:42.066Z,2.35
2023-09-06T08:04:11.348Z,2.45
2023-09-06T08:06:38.618Z,2.30
2023-09-06T08:09:06.074Z,2.38
2023-09-06T08:11:33.298Z,2.38
2023-09-06T08:14:00.350Z,2.50
2023-09-06T08:16:27.489Z,2.47
2023-09-06T08:18:57.721Z,2.33
2023-09-06T08:21:24.835Z,3.05
2023-09-06T08:23:53.101Z,2.40
2023-09-06T08:26:20.727Z,2.25
2023-09-06T08:28:47.895Z,2.42
2023-09-06T08:31:15.167Z,2.30
2023-09-06T08:33:42.969Z,2.78
2023-09-06T08:36:10.235Z,2.70
2023-09-06T08:38:40.091Z,2.58
2023-09-06T08:41:09.110Z,2.72
2023-09-06T08:43:42.502Z,2.53
2023-09-06T08:46:34.587Z,2.90
2023-09-06T08:49:07.232Z,2.20
2023-09-06T08:51:38.027Z,2.20
2023-09-06T08:54:08.906Z,2.40
2023-09-06T08:56:36.869Z,2.35
2023-09-06T08:59:07.553Z,2.47
2023-09-06T09:01:39.098Z,2.28
2023-09-06T09:04:06.796Z,2.40
2023-09-06T09:06:34.057Z,2.58
2023-09-06T09:09:21.425Z,2.53
2023-09-06T09:11:54.396Z,2.40
2023-09-06T09:14:25.001Z,2.60
2023-09-06T09:17:00.573Z,2.50
2023-09-06T09:19:28.386Z,2.30
2023-09-06T09:21:58.689Z,2.15
2023-09-06T09:24:31.057Z,2.47
2023-09-06T09:26:58.586Z,2.30
2023-09-06T09:29:26.899Z,2.13
2023-09-06T09:31:54.076Z,2.08
2023-09-06T09:34:22.649Z,1.95
2023-09-06T09:36:53.193Z,2.10
2023-09-06T09:39:27.875Z,2.30
2023-09-06T09:42:00.255Z,1.88
2023-09-06T09:44:27.899Z,2.20
2023-09-06T09:47:06.662Z,2.10
2023-09-06T09:49:44.494Z,2.05
2023-09-06T09:52:32.446Z,2.10
2023-09-06T09:55:03.802Z,1.88
2023-09-06T09:57:32.790Z,2.00
2023-09-06T10:00:00.607Z,2.25
2023-09-06T10:02:40.257Z,2.10
2023-09-06T10:05:13.735Z,1.85
2023-09-06T10:07:49.420Z,1.85
2023-09-06T10:10:19.504Z,1.80
2023-09-06T10:12:50.381Z,1.75
2023-09-06T10:15:21.247Z,1.67
2023-09-06T10:17:49.491Z,1.92
2023-09-06T10:20:16.880Z,1.98
2023-09-06T10:22:47.508Z,2.10
2023-09-06T10:25:17.644Z,1.58
2023-09-06T10:27:50.164Z,1.73
2023-09-06T10:30:30.081Z,1.85
2023-09-06T10:32:57.658Z,1.73
2023-09-06T10:35:32.649Z,1.98
2023-09-06T10:38:16.101Z,2.20
2023-09-06T10:40:50.584Z,1.92
2023-09-06T10:43:55.417Z,1.88
2023-09-06T10:46:28.640Z,1.80
2023-09-06T10:49:21.440Z,2.00
2023-09-06T10:52:05.622Z,1.90
2023-09-06T10:54:43.122Z,1.70
2023-09-06T10:57:13.034Z,1.70
2023-09-06T10:59:56.717Z,1.70
2023-09-06T11:02:23.863Z,1.60
2023-09-06T11:05:33.220Z,1.50
2023-09-06T11:08:01.480Z,1.90
2023-09-06T11:10:29.001Z,1.63
2023-09-06T11:12:57.924Z,1.65
2023-09-06T11:15:25.780Z,1.90
2023-09-06T11:18:01.563Z,1.85
2023-09-06T11:20:28.670Z,1.80
2023-09-06T11:23:01.862Z,1.65
2023-09-06T11:25:32.845Z,1.65
2023-09-06T11:28:15.224Z,1.95
2023-09-06T11:30:43.926Z,2.03
2023-09-06T11:33:12.732Z,2.00
2023-09-06T11:35:49.692Z,1.65
2023-09-06T11:38:21.595Z,1.90
2023-09-06T11:40:49.049Z,2.10
2023-09-06T11:43:18.603Z,2.03
2023-09-06T11:45:48.104Z,1.92
2023-09-06T11:48:20.477Z,2.03
2023-09-06T11:50:52.875Z,2.10
2023-09-06T11:53:20.212Z,1.70
2023-09-06T11:55:50.722Z,1.92
2023-09-06T11:58:18.263Z,1.80
2023-09-06T12:00:52.038Z,1.70
2023-09-06T12:03:23.325Z,1.80
2023-09-06T12:05:55.560Z,2.00
2023-09-06T12:08:24.940Z,1.70
2023-09-06T12:11:09.333Z,1.63
2023-09-06T12:13:38.581Z,1.80
2023-09-06T12:16:09.418Z,1.65
2023-09-06T12:18:39.061Z,1.77
2023-09-06T12:21:08.507Z,1.80
2023-09-06T12:23:38.797Z,1.70
2023-09-06T12:26:07.222Z,1.55
2023-09-06T12:28:34.762Z,1.65
2023-09-06T12:33:37.241Z,1.75
2023-09-06T12:36:06.524Z,1.90
2023-09-06T12:38:33.930Z,1.63
2023-09-06T12:41:03.056Z,1.55
2023-09-06T12:43:32.937Z,1.70
2023-09-06T12:46:00.513Z,1.70
2023-09-06T12:48:28.201Z,1.55
2023-09-06T12:50:57.964Z,1.60
2023-09-06T12:53:25.675Z,1.77
2023-09-06T12:55:53.086Z,1.70
2023-09-06T12:58:20.228Z,1.70
2023-09-06T13:00:47.983Z,1.42
2023-09-06T13:03:15.218Z,1.63
2023-09-06T13:05:43.674Z,1.77
2023-09-06T13:08:11.339Z,1.60
2023-09-06T13:10:40.407Z,1.67
2023-09-06T13:13:08.043Z,1.90
2023-09-06T13:15:36.563Z,1.90
2023-09-06T13:18:04.972Z,2.20
2023-09-06T13:20:35.124Z,1.98
2023-09-06T13:23:02.748Z,2.42
2023-09-06T13:25:30.345Z,1.83
2023-09-06T13:27:57.903Z,2.30
2023-09-06T13:30:25.200Z,2.03
2023-09-06T13:32:54.018Z,1.85
2023-09-06T13:35:21.261Z,2.00
2023-09-06T13:37:48.441Z,2.00
2023-09-06T13:40:17.218Z,2.05
2023-09-06T13:42:46.119Z,1.92
2023-09-06T13:45:13.300Z,2.40
2023-09-06T13:47:40.556Z,1.98
2023-09-06T13:50:08.731Z,1.98
2023-09-06T13:52:35.831Z,2.10
2023-09-06T13:55:03.240Z,2.00
2023-09-06T13:57:30.336Z,1.98
2023-09-06T13:59:57.658Z,2.30
2023-09-06T14:02:26.480Z,1.88
2023-09-06T14:04:57.376Z,1.90
2023-09-06T14:07:24.699Z,1.98
2023-09-06T14:09:51.784Z,2.03
2023-09-06T14:12:18.836Z,1.98
2023-09-06T14:14:45.915Z,1.70
2023-09-06T14:17:13.028Z,1.75
2023-09-06T14:19:40.138Z,1.95
2023-09-06T14:22:11.619Z,2.20
2023-09-06T14:24:39.647Z,1.90
2023-09-06T14:27:06.688Z,1.90
2023-09-06T14:29:34.096Z,1.60
2023-09-06T14:32:02.118Z,2.22
2023-09-06T14:34:29.439Z,1.80
2023-09-06T14:36:56.658Z,1.90
2023-09-06T14:39:24.560Z,1.90
2023-09-06T14:41:52.138Z,1.90
2023-09-06T14:44:19.680Z,1.92
2023-09-06T14:46:49.366Z,1.95
2023-09-06T14:49:16.620Z,1.80
2023-09-06T14:51:43.784Z,2.20
2023-09-06T14:54:10.869Z,1.63
2023-09-06T14:56:38.750Z,1.90
2023-09-06T14:59:06.276Z,1.55
2023-09-06T15:01:34.784Z,1.55
2023-09-06T15:04:02.317Z,1.90
2023-09-06T15:06:43.555Z,2.08
2023-09-06T15:09:16.710Z,2.10
2023-09-06T15:11:43.755Z,1.80
2023-09-06T15:14:12.168Z,2.10
2023-09-06T15:16:39.417Z,2.13
2023-09-06T15:19:06.976Z,1.90
2023-09-06T15:21:35.882Z,1.70
2023-09-06T15:24:05.764Z,1.63
2023-09-06T15:26:33.231Z,1.77
2023-09-06T15:29:00.367Z,1.85
2023-09-06T15:31:29.278Z,1.40
2023-09-06T15:33:56.666Z,1.90
2023-09-06T15:36:26.857Z,1.88
2023-09-06T15:38:54.743Z,1.67
2023-09-06T15:41:21.725Z,1.60
2023-09-06T15:43:48.918Z,1.83
2023-09-06T15:46:16.323Z,2.13
2023-09-06T15:48:43.725Z,1.83
2023-09-06T15:51:10.790Z,1.70
2023-09-06T15:53:37.918Z,1.80
2023-09-06T15:56:05.368Z,1.50
2023-09-06T15:58:32.649Z,1.60
2023-09-06T16:01:01.319Z,1.70
2023-09-06T16:03:28.667Z,1.45
2023-09-06T16:05:56.101Z,1.52
2023-09-06T16:08:24.855Z,1.55
2023-09-06T16:10:54.948Z,1.60
2023-09-06T16:13:22.012Z,2.00
2023-09-06T16:15:49.107Z,1.85
2023-09-06T16:18:16.223Z,1.70
2023-09-06T16:20:43.795Z,1.77
2023-09-06T16:23:12.368Z,1.92
2023-09-06T16:25:39.397Z,1.83
2023-09-06T16:28:06.584Z,1.63
2023-09-06T16:30:35.799Z,1.70
2023-09-06T16:33:04.085Z,1.75
2023-09-06T16:35:32.365Z,1.40
2023-09-06T16:38:01.591Z,2.22
2023-09-06T16:40:28.762Z,1.88
2023-09-06T16:42:56.044Z,1.60
2023-09-06T16:45:23.253Z,1.73
2023-09-06T16:47:51.688Z,1.80
2023-09-06T16:50:20.023Z,1.40
2023-09-06T16:52:47.718Z,1.38
2023-09-06T16:55:15.777Z,1.30
2023-09-06T16:57:43.623Z,1.58
2023-09-06T17:00:14.441Z,1.58
2023-09-06T17:02:42.502Z,1.50
2023-09-06T17:05:11.776Z,1.40
2023-09-06T17:07:39.172Z,1.60
2023-09-06T17:10:09.611Z,1.48
2023-09-06T17:12:38.504Z,1.45
2023-09-06T17:15:22.431Z,1.60
2023-09-06T17:17:51.518Z,1.45
2023-09-06T17:20:23.113Z,1.25
2023-09-06T17:22:51.628Z,1.35
2023-09-06T17:25:22.386Z,1.40
2023-09-06T17:27:49.856Z,1.48
2023-09-06T17:30:23.570Z,1.23
2023-09-06T17:33:15.288Z,1.23
2023-09-06T17:35:46.239Z,1.50
2023-09-06T17:38:16.035Z,1.50
2023-09-06T17:40:49.143Z,1.70
2023-09-06T17:43:17.234Z,1.40
2023-09-06T17:45:48.135Z,1.20
2023-09-06T17:48:17.599Z,1.40
2023-09-06T17:50:52.266Z,1.50
2023-09-06T17:53:22.793Z,1.60
2023-09-06T17:55:51.628Z,1.60
2023-09-06T17:58:19.533Z,1.48
2023-09-06T18:00:49.351Z,1.27
2023-09-06T18:03:19.306Z,1.20
2023-09-06T18:05:57.350Z,1.30
2023-09-06T18:08:28.085Z,1.30
2023-09-06T18:10:55.986Z,1.27
2023-09-06T18:13:23.192Z,1.40
2023-09-06T18:15:58.897Z,1.40
2023-09-06T18:18:25.971Z,1.60
2023-09-06T18:20:56.506Z,1.40
2023-09-06T18:23:23.659Z,1.67
2023-09-06T18:25:57.722Z,1.13
2023-09-06T18:28:24.958Z,1.30
2023-09-06T18:30:54.566Z,1.33
2023-09-06T18:33:23.451Z,1.33
2023-09-06T18:35:53.470Z,1.40
2023-09-06T18:38:23.082Z,1.50
2023-09-06T18:40:53.699Z,1.38
2023-09-06T18:43:23.540Z,1.50
2023-09-06T18:45:52.282Z,1.75
2023-09-06T18:48:23.598Z,1.60
2023-09-06T18:50:51.637Z,1.65
2023-09-06T18:53:18.852Z,2.08
2023-09-06T18:55:49.829Z,1.80
2023-09-06T18:58:20.224Z,1.65
2023-09-06T19:00:47.839Z,2.22
2023-09-06T19:03:15.709Z,2.55
2023-09-06T19:05:43.840Z,2.80
2023-09-06T19:08:16.531Z,2.60
2023-09-06T19:10:52.727Z,3.00
2023-09-06T19:13:21.361Z,2.75
2023-09-06T19:15:49.493Z,3.00
2023-09-06T19:18:17.870Z,2.78
2023-09-06T19:20:46.028Z,3.10
2023-09-06T19:23:18.282Z,3.20
2023-09-06T19:25:53.500Z,3.47
2023-09-06T19:28:23.548Z,2.83
2023-09-06T19:30:57.892Z,3.00
2023-09-06T19:33:28.316Z,2.85
2023-09-06T19:35:59.856Z,2.95
2023-09-06T19:38:28.158Z,2.70
2023-09-06T19:40:56.313Z,2.97
2023-09-06T19:43:25.532Z,2.65
2023-09-06T19:45:58.398Z,2.47
2023-09-06T19:48:27.025Z,2.50
2023-09-06T19:50:55.900Z,2.60
2023-09-06T19:53:23.814Z,2.78
2023-09-06T19:55:52.172Z,2.55
2023-09-06T19:58:20.906Z,2.92
2023-09-06T20:00:48.764Z,2.63
2023-09-06T20:03:18.436Z,2.80
2023-09-06T20:05:48.379Z,2.88
2023-09-06T20:08:16.081Z,3.15
2023-09-06T20:10:47.589Z,2.97
2023-09-06T20:13:14.874Z,2.85
2023-09-06T20:15:42.457Z,2.92
2023-09-06T20:18:09.663Z,2.53
2023-09-06T20:20:39.235Z,2.60
2023-09-06T20:23:07.290Z,2.60
2023-09-06T20:25:34.492Z,2.50
2023-09-06T20:28:01.624Z,2.50
2023-09-06T20:30:29.159Z,2.65
2023-09-06T20:32:56.690Z,2.83
2023-09-06T20:35:25.338Z,2.63
2023-09-06T20:37:52.797Z,2.63
2023-09-06T20:40:23.607Z,2.97
2023-09-06T20:42:50.812Z,2.88
2023-09-06T20:45:18.037Z,2.75
2023-09-06T20:47:45.856Z,2.85
2023-09-06T20:50:15.906Z,2.70
2023-09-06T20:52:43.071Z,2.67
2023-09-06T20:55:10.211Z,2.60
2023-09-06T20:57:38.044Z,2.65
2023-09-06T21:00:10.423Z,2.50
2023-09-06T21:02:38.234Z,3.20
2023-09-06T21:05:05.921Z,2.47
2023-09-06T21:07:33.541Z,2.70
2023-09-06T21:10:00.738Z,2.78
2023-09-06T21:12:28.353Z,3.13
2023-09-06T21:14:55.647Z,2.40
2023-09-06T21:17:22.813Z,2.90
2023-09-06T21:19:58.986Z,2.80
2023-09-06T21:22:26.224Z,2.80
2023-09-06T21:24:53.362Z,2.90
2023-09-06T21:27:20.488Z,2.70
2023-09-06T21:29:50.224Z,2.72
2023-09-06T21:32:17.396Z,3.00
2023-09-06T21:34:45.047Z,2.47
2023-09-06T21:37:12.197Z,2.70
2023-09-06T21:39:42.094Z,2.60
2023-09-06T21:42:10.099Z,2.35
2023-09-06T21:44:39.701Z,2.67
2023-09-06T21:47:07.175Z,2.85
2023-09-06T21:49:34.389Z,2.35
2023-09-06T21:52:01.535Z,2.22
2023-09-06T21:54:28.593Z,2.63
2023-09-06T21:56:55.819Z,2.45
2023-09-06T21:59:22.891Z,2.55
2023-09-06T22:01:49.952Z,2.45
2023-09-06T22:04:17.214Z,2.55
2023-09-06T22:06:44.672Z,2.63
2023-09-06T22:09:11.717Z,2.55
2023-09-06T22:11:38.693Z,2.35
2023-09-06T22:14:05.791Z,2.80
2023-09-06T22:16:32.996Z,2.97
2023-09-06T22:19:00.194Z,2.58
2023-09-06T22:21:27.664Z,2.60
2023-09-06T22:23:54.852Z,2.92
2023-09-06T22:26:21.932Z,2.92
2023-09-06T22:28:50.105Z,2.55
2023-09-06T22:31:17.239Z,2.80
2023-09-06T22:33:44.546Z,2.40
2023-09-06T22:36:11.897Z,2.80
2023-09-06T22:38:38.896Z,2.80
2023-09-06T22:41:06.203Z,2.50
2023-09-06T22:43:33.320Z,2.88
2023-09-06T22:46:00.452Z,2.35
2023-09-06T22:48:37.263Z,2.47
2023-09-06T22:51:14.867Z,2.70
2023-09-06T22:53:42.023Z,2.50
2023-09-06T22:56:10.047Z,2.83
2023-09-06T22:58:37.098Z,2.72
2023-09-06T23:01:08.663Z,2.42
2023-09-06T23:03:35.887Z,2.33
2023-09-06T23:06:08.073Z,2.50
2023-09-06T23:08:36.262Z,2.47
2023-09-06T23:11:06.592Z,2.65
2023-09-06T23:13:35.127Z,2.80
2023-09-06T23:16:02.248Z,2.17
2023-09-06T23:18:30.750Z,2.40
2023-09-06T23:21:06.378Z,2.53
2023-09-06T23:23:34.694Z,2.22
2023-09-06T23:26:05.501Z,2.30
2023-09-06T23:28:35.515Z,2.50
2023-09-06T23:31:06.930Z,2.15
2023-09-06T23:33:40.943Z,2.15
2023-09-06T23:36:10.332Z,2.42
2023-09-06T23:38:38.596Z,2.30
2023-09-06T23:41:05.730Z,2.40
2023-09-06T23:43:32.854Z,2.30
2023-09-06T23:46:01.722Z,2.50
2023-09-06T23:48:29.347Z,2.47
2023-09-06T23:50:59.476Z,2.45
2023-09-06T23:53:27.178Z,2.22
2023-09-06T23:55:58.290Z,2.10
2023-09-06T23:58:25.568Z,2.30
